Airfield :
LOGIN :

Register | Disclaimer

   EN    FR    IT 

 










Legend :    VFR   Marginal VFR   IFR   Intensive IFR   Very Intensive IFR
Visi :
Ceiling :
>= 8 km
>= 3000ft
5 to 8 km
1000 to 3000 ft
1500m to 5 km
500 to 1000 ft
800 to 1500m
200 to 500 ft
< 800m
< 200 ft
Symbols :   Thunderstorms  Fog  Heavy snow  Heavy precipitations  Wind > 20 kt
SIGMETs :     Misc.  Thunderstorms  Icing  Turbulence  Mountain Waves  Volcanic Ashes






- Airport Elevation : 203 ft
- IATA code : XMJ


LFBM - Mont-De-Marsan

CURRENT METAR :
  • 061500Z AUTO 09004KT CAVOK 13/08 Q1021 BECMG 4000 BR

EXPIRED METARs :
  • 061430Z AUTO 10004KT 080V150 CAVOK 12/09 Q1021 BECMG 4000 BR
  • 061400Z AUTO 08003KT 040V120 CAVOK 12/09 Q1021 NOSIG
  • 061330Z AUTO 11004KT 070V160 CAVOK 12/09 Q1022 NOSIG
  • 061300Z AUTO 09004KT 040V130 CAVOK 11/10 Q1022 NOSIG
  • 061230Z AUTO 13004KT 080V170 9000 BKN007 10/10 Q1022 BECMG NSC

TAF TAF LFBM
Valid from the 06 at 15:00 until the 07 at 15:00 UTC


061400Z 0615/0715 VRB03KT CAVOK
BECMG 0616/0618 4000 BR NSC
TEMPO 0621/0708 2000 MIFG



MET'MAP, your aeronautical weather chart ! - Copyright ORBIFLY December 2007 - Disclaimer

ORBIFLY MET'MAP TEAM :

Programming & Development : Alexandra Zaïnal
Concept & original design : Baudouin d'Aumeries
Assistance for programming : Marc-Olivier Méhu
Technical & hardware support : Manuel Goepfert

Contact : metmap@orbifly.com




SOURCES & CREDITS :

   NOAA